Time;durP1;ratioP1;P1;durP2;ratioP2;P2;SDS_P1;SDS_P2;PMS_P1;PMS_P2;Temp;Humidity;BMP_temperature;BMP_pressure;BME280_temperature;BME280_humidity;BME280_pressure;Samples;Min_cycle;Max_cycle;Signal;HPM_P1;HPM_P2
2024/01/05 00:01:03;;;;;;;;;;;;;;;7.54;100.00;99856.88;5011515;28;19920;-68
2024/01/05 00:03:28;;;;;;;;;;;;;;;7.56;100.00;99846.13;5007354;28;19922;-68
2024/01/05 00:05:53;;;;;;;;;;;;;;;7.56;100.00;99852.25;5010027;28;19944;-68
2024/01/05 00:08:18;;;;;;;;;;;;;;;7.57;100.00;99838.03;5008073;28;19922;-68
2024/01/05 00:10:43;;;;;;;;;;;;;;;7.58;100.00;99839.69;5013101;28;20451;-67
2024/01/05 00:13:09;;;;;;;;;;;;;;;7.58;100.00;99834.38;5007652;28;20501;-67
2024/01/05 00:15:34;;;;;;;;;;;;;;;7.59;100.00;99836.03;5012688;28;19978;-68
2024/01/05 00:17:59;;;;;;;;;;;;;;;7.58;100.00;99829.09;5011514;28;19937;-68
2024/01/05 00:20:24;;;;;;;;;;;;;;;7.57;100.00;99830.09;5016469;28;20358;-68
2024/01/05 00:22:49;;;;;;;;;;;;;;;7.57;100.00;99827.47;5015721;28;19921;-68
2024/01/05 00:25:16;;;;;;;;;;;;;;;7.57;100.00;99819.53;5013519;28;19924;-68
2024/01/05 00:27:41;;;;;;;;;;;;;;;7.55;100.00;99824.19;5017320;28;20973;-67
2024/01/05 00:30:07;;;;;;;;;;;;;;;7.56;100.00;99825.00;5009712;28;19925;-67
2024/01/05 00:32:32;;;;;;;;;;;;;;;7.58;100.00;99823.81;5011433;28;20629;-67
2024/01/05 00:34:57;;;;;;;;;;;;;;;7.56;100.00;99828.47;5014766;28;20032;-67
2024/01/05 00:37:22;;;;;;;;;;;;;;;7.56;100.00;99809.97;5017716;28;19917;-67
2024/01/05 00:39:48;;;;;;;;;;;;;;;7.53;100.00;99810.31;5010977;28;19925;-67
2024/01/05 00:42:13;;;;;;;;;;;;;;;7.55;100.00;99810.97;5011111;28;19931;-68
2024/01/05 00:44:39;;;;;;;;;;;;;;;7.56;100.00;99809.97;5017961;28;20332;-68
2024/01/05 00:47:04;;;;;;;;;;;;;;;7.57;100.00;99811.63;5009883;28;19932;-67
2024/01/05 00:49:30;;;;;;;;;;;;;;;7.58;100.00;99799.22;5008575;28;19918;-67
2024/01/05 00:51:55;;;;;;;;;;;;;;;7.58;100.00;99800.03;5012169;28;20757;-67
2024/01/05 00:54:20;;;;;;;;;;;;;;;7.60;100.00;99805.97;5006980;28;20001;-67
2024/01/05 00:56:46;;;;;;;;;;;;;;;7.62;100.00;99798.69;5012550;28;19924;-67
2024/01/05 00:59:11;;;;;;;;;;;;;;;7.64;100.00;99801.16;5014805;28;19927;-67
2024/01/05 01:01:37;;;;;;;;;;;;;;;7.64;100.00;99796.69;5007058;28;19972;-67
2024/01/05 01:04:02;;;;;;;;;;;;;;;7.67;100.00;99803.44;5009710;28;19965;-67
2024/01/05 01:06:27;;;;;;;;;;;;;;;7.68;100.00;99797.97;5012301;28;19921;-67
2024/01/05 01:08:52;;;;;;;;;;;;;;;7.68;100.00;99787.41;5009975;28;20263;-67
2024/01/05 01:11:18;;;;;;;;;;;;;;;7.71;100.00;99791.50;5011010;28;20560;-67
2024/01/05 01:13:43;;;;;;;;;;;;;;;7.72;100.00;99785.22;5015078;28;20423;-67
2024/01/05 01:16:09;;;;;;;;;;;;;;;7.74;100.00;99786.69;5009007;28;19991;-67
2024/01/05 01:18:34;;;;;;;;;;;;;;;7.75;100.00;99777.75;5011174;28;19921;-67
2024/01/05 01:20:59;;;;;;;;;;;;;;;7.77;100.00;99775.75;5012500;28;20011;-67
2024/01/05 01:23:25;;;;;;;;;;;;;;;7.83;100.00;99770.78;5014115;28;20390;-67
2024/01/05 01:25:50;;;;;;;;;;;;;;;7.82;100.00;99785.00;5010350;28;20566;-67
2024/01/05 01:28:15;;;;;;;;;;;;;;;7.84;100.00;99775.06;5013028;28;20383;-67
2024/01/05 01:30:40;;;;;;;;;;;;;;;7.83;100.00;99773.44;5008501;28;19983;-68
2024/01/05 01:33:06;;;;;;;;;;;;;;;7.85;100.00;99766.97;5017678;28;19921;-67
2024/01/05 01:35:31;;;;;;;;;;;;;;;7.87;100.00;99764.13;5012801;28;19965;-67
2024/01/05 01:37:56;;;;;;;;;;;;;;;7.90;100.00;99766.41;5016401;28;20272;-67
2024/01/05 01:40:21;;;;;;;;;;;;;;;7.93;100.00;99763.41;5015326;28;19921;-67
2024/01/05 01:42:47;;;;;;;;;;;;;;;7.90;100.00;99755.84;5012250;28;20025;-67
2024/01/05 01:45:13;;;;;;;;;;;;;;;7.94;100.00;99757.94;5016695;28;20459;-67
2024/01/05 01:47:39;;;;;;;;;;;;;;;8.05;100.00;99754.84;5017393;28;20022;-67
2024/01/05 01:50:06;;;;;;;;;;;;;;;7.98;100.00;99755.75;5009949;28;20501;-67
2024/01/05 01:52:31;;;;;;;;;;;;;;;8.00;100.00;99744.00;5017645;28;19976;-67
2024/01/05 01:54:57;;;;;;;;;;;;;;;8.05;100.00;99735.50;5014572;28;19960;-67
2024/01/05 01:57:22;;;;;;;;;;;;;;;8.14;100.00;99729.16;5007374;28;19920;-67
2024/01/05 01:59:47;;;;;;;;;;;;;;;8.17;100.00;99726.16;5014032;28;19925;-67
2024/01/05 02:02:13;;;;;;;;;;;;;;;8.16;100.00;99721.03;5010224;28;21036;-67
2024/01/05 02:04:39;;;;;;;;;;;;;;;8.19;100.00;99723.31;5018231;28;19961;-67
2024/01/05 02:07:04;;;;;;;;;;;;;;;8.09;100.00;99715.63;5012268;28;19921;-67
2024/01/05 02:09:30;;;;;;;;;;;;;;;8.15;100.00;99703.53;5019152;28;20512;-67
2024/01/05 02:11:55;;;;;;;;;;;;;;;8.17;100.00;99698.88;5008428;28;20280;-67
2024/01/05 02:14:21;;;;;;;;;;;;;;;8.14;100.00;99700.06;5013395;28;19925;-68
2024/01/05 02:16:46;;;;;;;;;;;;;;;8.12;100.00;99699.44;5011993;28;19944;-67
2024/01/05 02:19:11;;;;;;;;;;;;;;;8.23;100.00;99685.75;5011228;28;19932;-67
2024/01/05 02:21:42;;;;;;;;;;;;;;;8.19;100.00;99678.38;5016967;28;19949;-67
2024/01/05 02:24:07;;;;;;;;;;;;;;;8.15;100.00;99677.91;5019023;28;19928;-67
2024/01/05 02:26:32;;;;;;;;;;;;;;;8.21;100.00;99674.53;5012042;28;19918;-67
2024/01/05 02:28:57;;;;;;;;;;;;;;;8.18;100.00;99669.59;5011789;28;20478;-67
2024/01/05 02:31:23;;;;;;;;;;;;;;;8.16;100.00;99663.69;5007206;28;19917;-67
2024/01/05 02:33:50;;;;;;;;;;;;;;;8.08;100.00;99666.41;5011880;28;21471;-67
2024/01/05 02:36:15;;;;;;;;;;;;;;;8.03;100.00;99664.31;5016070;28;19925;-67
2024/01/05 02:38:40;;;;;;;;;;;;;;;8.01;100.00;99660.22;5011712;28;20693;-67
2024/01/05 02:41:06;;;;;;;;;;;;;;;8.09;100.00;99652.19;5009969;28;20528;-67
2024/01/05 02:43:31;;;;;;;;;;;;;;;8.15;100.00;99643.53;5021640;28;19929;-67
2024/01/05 02:45:56;;;;;;;;;;;;;;;8.12;100.00;99651.03;5006603;28;19979;-67
2024/01/05 02:48:21;;;;;;;;;;;;;;;8.05;100.00;99650.91;5014335;28;19928;-67
2024/01/05 02:50:46;;;;;;;;;;;;;;;8.02;100.00;99641.53;5009664;28;20016;-67
2024/01/05 02:53:12;;;;;;;;;;;;;;;8.03;100.00;99642.34;5007891;28;19925;-67
2024/01/05 02:55:37;;;;;;;;;;;;;;;8.02;100.00;99646.81;5004688;28;19924;-67
2024/01/05 02:58:02;;;;;;;;;;;;;;;8.02;100.00;99641.53;5008770;28;19926;-67
2024/01/05 03:00:28;;;;;;;;;;;;;;;8.04;100.00;99634.22;5012378;28;20001;-67
2024/01/05 03:02:53;;;;;;;;;;;;;;;8.03;100.00;99639.69;5012197;28;19948;-67
2024/01/05 03:05:18;;;;;;;;;;;;;;;8.02;100.00;99625.66;5013873;28;19994;-67
2024/01/05 03:07:43;;;;;;;;;;;;;;;8.01;100.00;99621.38;5004011;28;19917;-67
2024/01/05 03:10:09;;;;;;;;;;;;;;;7.99;100.00;99617.28;5008180;28;19932;-67
2024/01/05 03:12:34;;;;;;;;;;;;;;;8.06;100.00;99608.41;5013838;28;19939;-67
2024/01/05 03:14:59;;;;;;;;;;;;;;;8.08;100.00;99603.75;5006812;28;19917;-67
2024/01/05 03:17:24;;;;;;;;;;;;;;;8.05;100.00;99608.59;5005250;28;20453;-67
2024/01/05 03:19:49;;;;;;;;;;;;;;;8.00;100.00;99600.41;5008518;28;19924;-67
2024/01/05 03:22:15;;;;;;;;;;;;;;;8.00;100.00;99588.00;5012559;28;19933;-67
2024/01/05 03:24:40;;;;;;;;;;;;;;;7.99;100.00;99589.03;5019046;28;19921;-67
2024/01/05 03:27:05;;;;;;;;;;;;;;;7.98;100.00;99597.13;5007643;28;20589;-67
2024/01/05 03:29:30;;;;;;;;;;;;;;;7.99;100.00;99588.19;5011364;28;19928;-67
2024/01/05 03:31:55;;;;;;;;;;;;;;;7.93;100.00;99587.13;5017399;28;19917;-65
2024/01/05 03:34:21;;;;;;;;;;;;;;;7.92;100.00;99589.94;5007873;28;19921;-65
2024/01/05 03:36:46;;;;;;;;;;;;;;;7.91;100.00;99585.66;5008813;28;19921;-65
2024/01/05 03:39:12;;;;;;;;;;;;;;;7.89;100.00;99564.69;5018779;28;19924;-65
2024/01/05 03:41:37;;;;;;;;;;;;;;;7.89;100.00;99577.09;5020767;28;19925;-65
2024/01/05 03:44:02;;;;;;;;;;;;;;;7.88;100.00;99567.53;5015916;28;19921;-65
2024/01/05 03:46:28;;;;;;;;;;;;;;;7.90;100.00;99565.53;5010301;28;19929;-65
2024/01/05 03:48:53;;;;;;;;;;;;;;;7.87;100.00;99569.34;5014232;28;19925;-65
2024/01/05 03:51:18;;;;;;;;;;;;;;;7.80;100.00;99552.56;5006019;28;19932;-65
2024/01/05 03:53:43;;;;;;;;;;;;;;;7.86;100.00;99556.34;5017084;28;19924;-65
2024/01/05 03:56:09;;;;;;;;;;;;;;;7.84;100.00;99550.41;5011716;28;20458;-65
2024/01/05 03:58:34;;;;;;;;;;;;;;;7.84;100.00;99545.94;5014835;28;19928;-65
2024/01/05 04:01:02;;;;;;;;;;;;;;;7.84;100.00;99534.56;5015243;28;19928;-65
2024/01/05 04:03:28;;;;;;;;;;;;;;;7.83;100.00;99546.13;5009657;28;20275;-65
2024/01/05 04:05:53;;;;;;;;;;;;;;;7.82;100.00;99539.19;5010485;28;19928;-65
2024/01/05 04:08:18;;;;;;;;;;;;;;;7.83;100.00;99538.19;5011076;28;19921;-66
2024/01/05 04:10:43;;;;;;;;;;;;;;;7.82;100.00;99532.09;5021581;28;20035;-65
2024/01/05 04:13:08;;;;;;;;;;;;;;;7.82;100.00;99532.09;5016568;28;20314;-65
2024/01/05 04:15:37;;;;;;;;;;;;;;;7.82;100.00;99521.53;5020236;28;19944;-65
2024/01/05 04:18:03;;;;;;;;;;;;;;;7.81;100.00;99525.16;5013431;28;19925;-65
2024/01/05 04:20:28;;;;;;;;;;;;;;;7.81;100.00;99517.25;5015462;28;19929;-65
2024/01/05 04:22:53;;;;;;;;;;;;;;;7.81;100.00;99506.66;5021095;28;19921;-65
2024/01/05 04:25:18;;;;;;;;;;;;;;;7.82;100.00;99516.25;5015258;28;19925;-65
2024/01/05 04:27:44;;;;;;;;;;;;;;;7.80;100.00;99499.72;5018816;28;19921;-65
2024/01/05 04:30:09;;;;;;;;;;;;;;;7.84;100.00;99500.19;5017767;28;19948;-65
2024/01/05 04:32:35;;;;;;;;;;;;;;;7.79;100.00;99487.50;5017933;28;19921;-65
2024/01/05 04:35:00;;;;;;;;;;;;;;;7.79;100.00;99490.16;5015285;28;20331;-65
2024/01/05 04:37:25;;;;;;;;;;;;;;;7.80;100.00;99488.31;5012030;28;19983;-65
2024/01/05 04:39:50;;;;;;;;;;;;;;;7.78;100.00;99476.13;5018573;28;19917;-65
2024/01/05 04:42:15;;;;;;;;;;;;;;;7.77;100.00;99479.78;5023707;28;19956;-65
2024/01/05 04:44:41;;;;;;;;;;;;;;;7.74;100.00;99472.22;5020541;28;19921;-65
2024/01/05 04:47:06;;;;;;;;;;;;;;;7.76;100.00;99470.19;5023159;28;19927;-65
2024/01/05 04:49:33;;;;;;;;;;;;;;;7.79;100.00;99461.09;5019932;28;19933;-65
2024/01/05 04:51:58;;;;;;;;;;;;;;;7.80;100.00;99459.25;5013752;28;20713;-65
2024/01/05 04:54:24;;;;;;;;;;;;;;;7.76;100.00;99453.53;5017504;28;19969;-65
2024/01/05 04:56:49;;;;;;;;;;;;;;;7.82;100.00;99446.72;5011010;28;19925;-65
2024/01/05 04:59:14;;;;;;;;;;;;;;;7.77;100.00;99448.06;5011217;28;20020;-65
2024/01/05 05:01:39;;;;;;;;;;;;;;;7.77;100.00;99434.03;5010197;28;19932;-65
2024/01/05 05:04:05;;;;;;;;;;;;;;;7.82;100.00;99433.50;5012994;28;20371;-65
2024/01/05 05:06:30;;;;;;;;;;;;;;;7.74;100.00;99432.56;5014943;28;19929;-65
2024/01/05 05:08:55;;;;;;;;;;;;;;;7.71;100.00;99438.25;5015188;28;19960;-65
2024/01/05 05:11:20;;;;;;;;;;;;;;;7.66;100.00;99430.06;5013554;28;19924;-65
2024/01/05 05:13:45;;;;;;;;;;;;;;;7.63;100.00;99425.16;5010116;28;19932;-65
2024/01/05 05:16:11;;;;;;;;;;;;;;;7.60;100.00;99424.72;5007610;28;19922;-65
2024/01/05 05:18:36;;;;;;;;;;;;;;;7.60;100.00;99430.81;5016988;28;19974;-65
2024/01/05 05:21:02;;;;;;;;;;;;;;;7.59;100.00;99437.09;5016024;28;19917;-64
2024/01/05 05:23:27;;;;;;;;;;;;;;;7.57;100.00;99428.53;5013906;28;19913;-65
2024/01/05 05:25:52;;;;;;;;;;;;;;;7.56;100.00;99437.47;5019670;28;19999;-64
2024/01/05 05:28:18;;;;;;;;;;;;;;;7.57;100.00;99440.94;5008707;28;19925;-65
2024/01/05 05:30:43;;;;;;;;;;;;;;;7.58;100.00;99432.00;5017978;28;19921;-65
2024/01/05 05:33:08;;;;;;;;;;;;;;;7.59;100.00;99437.09;5012935;28;20333;-65
2024/01/05 05:35:33;;;;;;;;;;;;;;;7.59;100.00;99431.81;5017452;28;19921;-65
2024/01/05 05:38:02;;;;;;;;;;;;;;;7.60;100.00;99436.09;5014674;28;19929;-65
2024/01/05 05:40:28;;;;;;;;;;;;;;;7.63;100.00;99427.78;5008788;28;20472;-65
2024/01/05 05:42:53;;;;;;;;;;;;;;;7.64;100.00;99424.16;5018026;28;19929;-65
2024/01/05 05:45:18;;;;;;;;;;;;;;;7.65;100.00;99423.13;5016134;28;20014;-65
2024/01/05 05:47:43;;;;;;;;;;;;;;;7.66;100.00;99421.31;5013755;28;19921;-64
2024/01/05 05:50:09;;;;;;;;;;;;;;;7.70;100.00;99418.09;5007584;28;19929;-65
2024/01/05 05:52:37;;;;;;;;;;;;;;;7.72;100.00;99423.19;5018097;28;19921;-65
2024/01/05 05:55:02;;;;;;;;;;;;;;;7.74;100.00;99422.00;5018736;28;19929;-64
2024/01/05 05:57:28;;;;;;;;;;;;;;;7.86;100.00;99422.34;5018666;28;19921;-65
2024/01/05 05:59:53;;;;;;;;;;;;;;;7.89;100.00;99419.34;5017433;28;19925;-65
2024/01/05 06:02:18;;;;;;;;;;;;;;;7.88;100.00;99432.75;5007783;28;19921;-65
2024/01/05 06:04:43;;;;;;;;;;;;;;;7.99;100.00;99419.81;5013368;28;20520;-65
2024/01/05 06:07:08;;;;;;;;;;;;;;;8.11;100.00;99432.56;5014627;28;20549;-65
2024/01/05 06:09:34;;;;;;;;;;;;;;;8.18;100.00;99428.97;5015588;28;19921;-66
2024/01/05 06:11:59;;;;;;;;;;;;;;;8.20;100.00;99439.34;5018232;28;19925;-67
2024/01/05 06:14:24;;;;;;;;;;;;;;;8.18;99.90;99455.41;5012660;28;20020;-68
2024/01/05 06:16:49;;;;;;;;;;;;;;;8.22;98.96;99450.56;5016422;28;19948;-67
2024/01/05 06:19:14;;;;;;;;;;;;;;;8.28;97.88;99447.97;5009025;28;19921;-66
2024/01/05 06:21:40;;;;;;;;;;;;;;;8.25;94.36;99450.19;5019325;28;19925;-66
2024/01/05 06:24:05;;;;;;;;;;;;;;;8.26;93.98;99449.97;5018995;28;19927;-67
2024/01/05 06:26:31;;;;;;;;;;;;;;;8.25;93.22;99455.47;5018514;28;20015;-66
2024/01/05 06:28:56;;;;;;;;;;;;;;;8.27;91.94;99451.63;5014537;28;20015;-66
2024/01/05 06:31:23;;;;;;;;;;;;;;;8.26;89.87;99459.75;5008296;28;20024;-67
2024/01/05 06:33:48;;;;;;;;;;;;;;;8.22;88.52;99443.44;5014185;28;19925;-66
2024/01/05 06:36:13;;;;;;;;;;;;;;;8.28;88.03;99442.69;5012961;28;19921;-67
2024/01/05 06:38:38;;;;;;;;;;;;;;;8.21;87.53;99443.63;5017173;28;19928;-67
2024/01/05 06:41:04;;;;;;;;;;;;;;;8.14;87.87;99451.50;5013239;28;19925;-67
2024/01/05 06:43:29;;;;;;;;;;;;;;;8.07;87.47;99448.78;5015190;28;19925;-66
2024/01/05 06:45:54;;;;;;;;;;;;;;;8.04;87.55;99446.50;5017518;28;20422;-67
2024/01/05 06:48:19;;;;;;;;;;;;;;;8.08;86.58;99446.94;5009366;28;19925;-66
2024/01/05 06:50:45;;;;;;;;;;;;;;;8.01;86.26;99448.72;5012312;28;19918;-67
2024/01/05 06:53:10;;;;;;;;;;;;;;;8.00;85.98;99441.78;5007295;28;20619;-67
2024/01/05 06:55:35;;;;;;;;;;;;;;;7.94;86.52;99453.13;5016488;28;20403;-67
2024/01/05 06:58:02;;;;;;;;;;;;;;;7.93;85.88;99444.38;5016430;28;20560;-67
2024/01/05 07:00:28;;;;;;;;;;;;;;;7.89;86.15;99445.75;5011570;28;19921;-67
2024/01/05 07:02:53;;;;;;;;;;;;;;;7.86;86.62;99448.78;5010547;28;19941;-67
2024/01/05 07:05:19;;;;;;;;;;;;;;;7.88;86.64;99438.84;5012887;28;19925;-67
2024/01/05 07:07:44;;;;;;;;;;;;;;;7.88;86.40;99432.75;5009867;28;19917;-67
2024/01/05 07:10:09;;;;;;;;;;;;;;;7.86;86.21;99440.84;5013427;28;19952;-67
2024/01/05 07:12:34;;;;;;;;;;;;;;;7.87;86.07;99453.06;5011524;28;19945;-67
2024/01/05 07:15:00;;;;;;;;;;;;;;;7.87;85.33;99431.91;5005229;28;20695;-67
2024/01/05 07:17:26;;;;;;;;;;;;;;;7.84;85.27;99448.16;5011760;28;20792;-67
2024/01/05 07:19:51;;;;;;;;;;;;;;;7.83;85.20;99437.78;5014541;28;20019;-67
2024/01/05 07:22:16;;;;;;;;;;;;;;;7.74;85.13;99448.44;5006021;28;19922;-67
2024/01/05 07:24:41;;;;;;;;;;;;;;;7.61;85.14;99448.28;5001101;28;19921;-67
2024/01/05 07:27:07;;;;;;;;;;;;;;;7.51;85.84;99439.81;5008693;28;19991;-67
2024/01/05 07:29:32;;;;;;;;;;;;;;;7.52;86.36;99432.72;5011455;28;19948;-67
2024/01/05 07:31:57;;;;;;;;;;;;;;;7.44;86.55;99446.84;5007132;28;19974;-67
2024/01/05 07:34:22;;;;;;;;;;;;;;;7.39;86.87;99450.06;5012698;28;20374;-67
2024/01/05 07:36:48;;;;;;;;;;;;;;;7.35;87.49;99450.59;5016179;28;19925;-67
2024/01/05 07:39:13;;;;;;;;;;;;;;;7.29;87.73;99444.25;5010831;28;19991;-67
2024/01/05 07:41:39;;;;;;;;;;;;;;;7.14;88.45;99452.16;5006975;28;19913;-67
2024/01/05 07:44:04;;;;;;;;;;;;;;;6.92;89.24;99453.06;5012583;28;20625;-67
2024/01/05 07:46:30;;;;;;;;;;;;;;;6.80;90.01;99454.50;5005620;28;20479;-67
2024/01/05 07:48:55;;;;;;;;;;;;;;;6.73;90.82;99454.41;5011888;28;19918;-67
2024/01/05 07:51:20;;;;;;;;;;;;;;;6.75;91.88;99462.97;5011101;28;19932;-67
2024/01/05 07:53:48;;;;;;;;;;;;;;;6.66;92.34;99448.22;5007433;28;19954;-67
2024/01/05 07:56:13;;;;;;;;;;;;;;;6.61;93.11;99455.84;5012743;28;19961;-67
2024/01/05 07:58:39;;;;;;;;;;;;;;;6.52;93.64;99467.47;5005765;28;20000;-67
2024/01/05 08:01:04;;;;;;;;;;;;;;;6.44;94.33;99457.81;5005400;28;19971;-67
2024/01/05 08:03:29;;;;;;;;;;;;;;;6.39;94.97;99465.44;5013424;28;19975;-67
2024/01/05 08:05:54;;;;;;;;;;;;;;;6.39;95.77;99449.63;5012986;28;19918;-67
2024/01/05 08:08:20;;;;;;;;;;;;;;;6.34;96.35;99451.13;5012816;28;20442;-67
2024/01/05 08:10:45;;;;;;;;;;;;;;;6.43;96.46;99447.44;5010688;28;19921;-67
2024/01/05 08:13:10;;;;;;;;;;;;;;;6.46;96.38;99440.00;5006235;28;19924;-65
2024/01/05 08:15:35;;;;;;;;;;;;;;;6.47;96.73;99459.28;5009169;28;19918;-65
2024/01/05 08:18:01;;;;;;;;;;;;;;;6.47;96.81;99454.00;5008296;28;19931;-65
2024/01/05 08:20:27;;;;;;;;;;;;;;;6.52;96.96;99455.09;5015336;28;19917;-65
2024/01/05 08:22:52;;;;;;;;;;;;;;;6.53;96.94;99454.09;5013607;28;19984;-65
2024/01/05 08:25:18;;;;;;;;;;;;;;;6.51;96.87;99450.81;5013003;28;19924;-65
2024/01/05 08:27:43;;;;;;;;;;;;;;;6.47;97.20;99446.09;5007255;28;20012;-65
2024/01/05 08:30:12;;;;;;;;;;;;;;;6.50;97.36;99436.00;5015864;28;19917;-65
2024/01/05 08:32:38;;;;;;;;;;;;;;;6.51;97.41;99445.53;5015402;28;19921;-67
2024/01/05 08:35:04;;;;;;;;;;;;;;;6.44;97.78;99447.28;5012690;28;20316;-67
2024/01/05 08:37:29;;;;;;;;;;;;;;;6.39;98.70;99454.06;5012356;28;19929;-67
2024/01/05 08:39:55;;;;;;;;;;;;;;;6.41;99.12;99445.00;5014690;28;19917;-67
2024/01/05 08:42:20;;;;;;;;;;;;;;;6.32;99.18;99455.75;5008233;28;19984;-67
2024/01/05 08:44:45;;;;;;;;;;;;;;;6.30;99.61;99463.84;5012777;28;19925;-67
2024/01/05 08:47:11;;;;;;;;;;;;;;;6.21;100.00;99452.56;5007083;28;19921;-67
2024/01/05 08:49:36;;;;;;;;;;;;;;;6.10;100.00;99447.72;5010057;28;19921;-66
2024/01/05 08:52:02;;;;;;;;;;;;;;;6.02;100.00;99452.19;5011067;28;19927;-65
2024/01/05 08:54:27;;;;;;;;;;;;;;;6.00;100.00;99462.09;5010002;28;20482;-65
2024/01/05 08:56:53;;;;;;;;;;;;;;;5.95;100.00;99469.69;5015396;28;20735;-66
2024/01/05 08:59:18;;;;;;;;;;;;;;;5.89;100.00;99471.19;5010282;28;19921;-65
2024/01/05 09:01:44;;;;;;;;;;;;;;;5.85;100.00;99464.63;5014013;28;19921;-65
2024/01/05 09:04:10;;;;;;;;;;;;;;;5.78;100.00;99471.56;5010335;28;20198;-66
2024/01/05 09:06:37;;;;;;;;;;;;;;;5.78;100.00;99477.69;5012779;28;19920;-66
2024/01/05 09:09:03;;;;;;;;;;;;;;;5.72;100.00;99495.97;5009432;28;20020;-65
2024/01/05 09:11:28;;;;;;;;;;;;;;;5.57;100.00;99486.19;5009981;28;20347;-66
2024/01/05 09:13:53;;;;;;;;;;;;;;;5.51;100.00;99472.88;5013627;28;19925;-65
2024/01/05 09:16:18;;;;;;;;;;;;;;;5.41;100.00;99488.88;5014604;28;19931;-65
2024/01/05 09:18:44;;;;;;;;;;;;;;;5.37;100.00;99477.03;5017713;28;19928;-65
2024/01/05 09:21:11;;;;;;;;;;;;;;;5.24;100.00;99482.84;5013739;28;19961;-65
2024/01/05 09:23:36;;;;;;;;;;;;;;;5.11;100.00;99487.81;5007878;28;20105;-65
2024/01/05 09:26:01;;;;;;;;;;;;;;;5.07;100.00;99497.03;5016379;28;20386;-65
2024/01/05 09:28:26;;;;;;;;;;;;;;;5.04;100.00;99497.38;5009525;28;20349;-65
2024/01/05 09:30:51;;;;;;;;;;;;;;;5.06;100.00;99495.41;5010786;28;20567;-66
2024/01/05 09:33:17;;;;;;;;;;;;;;;5.03;100.00;99489.66;5003126;28;19929;-65
2024/01/05 09:35:42;;;;;;;;;;;;;;;5.00;100.00;99496.06;5011519;28;19921;-65
2024/01/05 09:38:07;;;;;;;;;;;;;;;5.03;100.00;99494.91;5007982;28;20650;-65
2024/01/05 09:40:33;;;;;;;;;;;;;;;5.00;100.00;99496.06;5013562;28;20012;-65
2024/01/05 09:43:02;;;;;;;;;;;;;;;5.03;100.00;99516.78;5016754;28;19928;-65
2024/01/05 09:45:27;;;;;;;;;;;;;;;4.96;100.00;99497.41;5008520;28;19917;-66
2024/01/05 09:47:55;;;;;;;;;;;;;;;4.98;100.00;99501.50;5008968;28;20559;-66
2024/01/05 09:50:20;;;;;;;;;;;;;;;4.95;100.00;99504.47;5014902;28;19925;-64
2024/01/05 09:52:45;;;;;;;;;;;;;;;4.99;100.00;99510.22;5009996;28;19931;-65
2024/01/05 09:55:11;;;;;;;;;;;;;;;5.12;100.00;99499.97;5009843;28;20466;-64
2024/01/05 09:57:39;;;;;;;;;;;;;;;5.21;100.00;99503.44;5017293;28;19928;-65
2024/01/05 10:00:05;;;;;;;;;;;;;;;5.28;100.00;99504.38;5011064;28;19921;-65
2024/01/05 10:02:39;;;;;;;;;;;;;;;5.43;100.00;99501.84;5014677;28;19933;-65
2024/01/05 10:05:05;;;;;;;;;;;;;;;5.49;100.00;99501.16;5014012;28;19953;-65
2024/01/05 10:07:30;;;;;;;;;;;;;;;5.55;100.00;99503.13;5014456;28;20056;-67
2024/01/05 10:09:58;;;;;;;;;;;;;;;5.65;100.00;99500.28;5006527;28;19924;-66
2024/01/05 10:12:24;;;;;;;;;;;;;;;5.63;100.00;99503.09;5004977;28;19921;-67
2024/01/05 10:14:49;;;;;;;;;;;;;;;5.55;100.00;99509.22;5010054;28;19917;-67
2024/01/05 10:17:15;;;;;;;;;;;;;;;5.55;100.00;99495.25;5016301;28;20436;-67
2024/01/05 10:19:41;;;;;;;;;;;;;;;5.57;100.00;99503.78;5010391;28;21246;-67
2024/01/05 10:22:13;;;;;;;;;;;;;;;5.49;100.00;99512.56;5016460;28;19925;-67
2024/01/05 10:24:39;;;;;;;;;;;;;;;5.52;100.00;99509.56;5005763;28;19932;-67
2024/01/05 10:27:11;;;;;;;;;;;;;;;5.49;100.00;99507.28;5014065;28;19921;-67
2024/01/05 10:29:38;;;;;;;;;;;;;;;5.50;100.00;99497.56;5013383;28;20580;-67
2024/01/05 10:32:10;;;;;;;;;;;;;;;5.46;100.00;99502.34;5011405;28;20325;-68
2024/01/05 10:34:35;;;;;;;;;;;;;;;5.49;100.00;99507.28;5011436;28;19921;-67
2024/01/05 10:37:04;;;;;;;;;;;;;;;5.55;100.00;99511.03;5016721;28;19925;-67
2024/01/05 10:39:30;;;;;;;;;;;;;;;5.59;100.00;99500.00;5008911;28;19925;-67
2024/01/05 10:42:00;;;;;;;;;;;;;;;5.56;100.00;99504.78;5013474;28;19924;-67
2024/01/05 10:44:25;;;;;;;;;;;;;;;5.61;100.00;99510.34;5014744;28;20453;-67
2024/01/05 10:46:51;;;;;;;;;;;;;;;5.58;100.00;99497.53;5009666;28;19951;-67
2024/01/05 10:49:16;;;;;;;;;;;;;;;5.67;100.00;99511.47;5007920;28;20146;-67
2024/01/05 10:51:41;;;;;;;;;;;;;;;5.74;100.00;99515.88;5015305;28;19947;-67
2024/01/05 10:54:07;;;;;;;;;;;;;;;5.80;100.00;99515.22;5008953;28;19940;-67
2024/01/05 10:56:33;;;;;;;;;;;;;;;5.73;100.00;99508.16;5013686;28;19917;-66
2024/01/05 10:58:59;;;;;;;;;;;;;;;5.71;100.00;99491.69;5010053;28;19921;-67
2024/01/05 11:01:26;;;;;;;;;;;;;;;5.70;100.00;99506.69;5009940;28;20404;-66
2024/01/05 11:03:53;;;;;;;;;;;;;;;5.61;100.00;99507.72;5003610;28;19968;-66
2024/01/05 11:06:19;;;;;;;;;;;;;;;5.62;100.00;99504.09;5008304;28;19929;-67
2024/01/05 11:09:00;;;;;;;;;;;;;;;5.67;100.00;99507.03;5006159;28;19922;-67
2024/01/05 11:11:35;;;;;;;;;;;;;;;5.75;100.00;99506.16;5009625;28;19921;-66
2024/01/05 11:14:06;;;;;;;;;;;;;;;5.76;100.00;99507.78;5004821;28;19924;-66
2024/01/05 11:16:34;;;;;;;;;;;;;;;5.82;100.00;99507.97;5003558;28;19922;-66
2024/01/05 11:19:07;;;;;;;;;;;;;;;5.90;100.00;99500.03;5008840;28;19980;-66
2024/01/05 11:21:32;;;;;;;;;;;;;;;6.00;100.00;99504.25;5003163;28;20390;-66
2024/01/05 11:23:58;;;;;;;;;;;;;;;6.07;100.00;99498.13;5003886;28;19921;-67
2024/01/05 11:26:29;;;;;;;;;;;;;;;6.05;100.00;99492.19;5006728;28;19979;-67
2024/01/05 11:28:55;;;;;;;;;;;;;;;6.09;100.00;99500.59;5020805;28;19917;-66
2024/01/05 11:31:38;;;;;;;;;;;;;;;6.09;100.00;99497.97;5012496;28;19925;-66
2024/01/05 11:34:04;;;;;;;;;;;;;;;5.99;100.00;99510.50;5005088;28;19921;-67
2024/01/05 11:36:54;;;;;;;;;;;;;;;5.76;100.00;99499.91;5004170;28;19941;-67
2024/01/05 11:39:39;;;;;;;;;;;;;;;5.58;100.00;99505.44;5008096;28;20400;-66
2024/01/05 11:42:04;;;;;;;;;;;;;;;5.51;100.00;99499.22;5013290;28;19932;-67
2024/01/05 11:44:35;;;;;;;;;;;;;;;5.56;100.00;99492.44;5006193;28;19921;-67
2024/01/05 11:47:04;;;;;;;;;;;;;;;5.46;100.00;99499.69;5009210;28;19997;-65
2024/01/05 11:49:36;;;;;;;;;;;;;;;5.43;100.00;99492.16;5004912;28;19923;-66
2024/01/05 11:52:03;;;;;;;;;;;;;;;5.48;100.00;99489.00;5014504;28;19995;-66
2024/01/05 11:54:29;;;;;;;;;;;;;;;5.45;100.00;99502.50;5020734;28;19925;-65
2024/01/05 11:56:57;;;;;;;;;;;;;;;5.46;100.00;99496.25;5008715;28;20032;-65
2024/01/05 11:59:22;;;;;;;;;;;;;;;5.54;100.00;99502.31;5006528;28;19921;-65
2024/01/05 12:01:52;;;;;;;;;;;;;;;5.62;100.00;99493.56;5007806;28;19929;-65
2024/01/05 12:04:18;;;;;;;;;;;;;;;5.70;100.00;99493.50;5007612;28;19921;-65
2024/01/05 12:06:50;;;;;;;;;;;;;;;5.70;100.00;99485.59;5011694;28;19921;-65
2024/01/05 12:09:18;;;;;;;;;;;;;;;5.71;100.00;99495.16;5015160;28;19927;-65
2024/01/05 12:11:43;;;;;;;;;;;;;;;5.78;100.00;99500.53;5011201;28;19928;-65
2024/01/05 12:14:08;;;;;;;;;;;;;;;5.80;100.00;99495.94;5010426;28;19921;-65
2024/01/05 12:16:34;;;;;;;;;;;;;;;5.85;100.00;99497.06;5011254;28;19925;-65
2024/01/05 12:18:59;;;;;;;;;;;;;;;5.83;100.00;99485.88;5010771;28;19921;-65
2024/01/05 12:21:24;;;;;;;;;;;;;;;5.73;100.00;99473.91;5018549;28;19921;-66
2024/01/05 12:23:53;;;;;;;;;;;;;;;5.62;100.00;99480.38;5017064;28;19921;-66
2024/01/05 12:26:19;;;;;;;;;;;;;;;5.59;100.00;99476.28;5009857;28;19984;-65
2024/01/05 12:28:45;;;;;;;;;;;;;;;5.51;100.00;99471.06;5014150;28;19921;-65
2024/01/05 12:31:11;;;;;;;;;;;;;;;5.52;100.00;99480.59;5016014;28;19936;-66
2024/01/05 12:33:37;;;;;;;;;;;;;;;5.49;100.00;99485.38;5016160;28;19917;-65
2024/01/05 12:36:04;;;;;;;;;;;;;;;5.47;100.00;99482.09;5011069;28;20079;-65
2024/01/05 12:38:30;;;;;;;;;;;;;;;5.48;100.00;99489.00;5017050;28;20072;-66
2024/01/05 12:41:08;;;;;;;;;;;;;;;5.45;100.00;99474.38;5017377;28;20903;-65